Decoded Metar for KAFN (JAFFREY in NH, USA) (IATA:AFN) | Meteo·Mobile Aviation Weather
aviador You're here:

KAFN Decoded Metar

JAFFREY in NH, USA
Report Time2018-10-23 11:52:00
UTC Time2018-10-23 12:42:22
Flight Rules vfr VFR
WindCalm
Visibility9999 m
Phenomena:N/A
Clouds:Few 060 Hf
Overcast 090 Hf
Expected CloudBase > 400 ft AGL from Temp-Dew spread
Ceiling9,000 ft
Temp03°C (ISA -10)
Dew Point02°C (93% RH)
AAT1.3°C
QNH1019 hPa
Density Alt-282 ft
Elevation1,027 ft
Report Wrong Elevation
Raw Report
KAFN 231152Z AUTO 00000KT 10SM FEW060 OVC090 03/02 A3009 RMK AO2
SLP203 T00330022 10044 20028 56005=

Extra information for KAFN:More info

Metar Taf Metar & Taf Last 4 Metars F.Rules Stats Wind Profile Meteogram Temp Stats Airport Information Weather charts Add Link Nearby VenuesMetar ALERT Operation Metar Decoded Social comments

AIRNAV info for KAFN